Time;durP1;ratioP1;P1;durP2;ratioP2;P2;SDS_P1;SDS_P2;PMS_P1;PMS_P2;Temp;Humidity;BMP_temperature;BMP_pressure;BME280_temperature;BME280_humidity;BME280_pressure;Samples;Min_cycle;Max_cycle;Signal;HPM_P1;HPM_P2
2022/06/11 00:01:45;;;;;;;1.80;1.70;;;;;;;12.44;83.68;96322.91;5108772;27;20034;-60
2022/06/11 00:04:15;;;;;;;2.15;1.58;;;;;;;12.41;82.32;96317.06;5102023;27;20088;-60
2022/06/11 00:06:46;;;;;;;2.10;1.55;;;;;;;12.45;82.20;96323.72;5107521;27;20698;-60
2022/06/11 00:09:12;;;;;;;2.15;1.58;;;;;;;12.42;82.65;96313.44;5103160;27;20411;-60
2022/06/11 00:11:39;;;;;;;3.83;1.60;;;;;;;12.35;84.19;96317.63;5099694;27;20028;-60
2022/06/11 00:14:05;;;;;;;3.10;1.63;;;;;;;12.30;83.13;96318.88;5098882;27;20028;-60
2022/06/11 00:16:30;;;;;;;2.22;1.40;;;;;;;12.26;83.39;96322.72;5101691;27;20059;-60
2022/06/11 00:18:57;;;;;;;3.33;1.92;;;;;;;12.27;83.56;96315.66;5097044;27;20071;-60
2022/06/11 00:21:26;;;;;;;2.40;1.50;;;;;;;12.23;83.46;96323.00;5099915;27;20037;-60
2022/06/11 00:23:52;;;;;;;1.60;1.50;;;;;;;12.20;83.88;96325.94;5108281;27;20050;-60
2022/06/11 00:26:17;;;;;;;2.20;1.80;;;;;;;12.19;83.61;96329.53;5099828;27;20024;-60
2022/06/11 00:28:43;;;;;;;2.03;1.80;;;;;;;12.18;83.17;96319.94;5104732;27;20024;-60
2022/06/11 00:31:10;;;;;;;3.42;1.67;;;;;;;12.16;83.06;96324.53;5077611;28;20020;-60
2022/06/11 00:33:36;;;;;;;4.00;1.92;;;;;;;12.16;82.05;96324.53;5106258;27;20039;-60
2022/06/11 00:36:04;;;;;;;6.25;1.80;;;;;;;12.17;81.86;96320.94;5099698;27;20039;-60
2022/06/11 00:38:29;;;;;;;2.75;1.90;;;;;;;12.15;82.14;96322.88;5098099;27;20032;-60
2022/06/11 00:40:55;;;;;;;1.85;1.63;;;;;;;12.14;82.25;96315.94;5103181;27;20028;-60
2022/06/11 00:43:24;;;;;;;4.20;1.70;;;;;;;12.08;82.50;96316.47;5104832;27;20032;-60
2022/06/11 00:46:21;;;;;;;2.83;1.90;;;;;;;12.01;84.54;96306.44;5097476;27;20070;-60
2022/06/11 00:48:47;;;;;;;3.85;1.90;;;;;;;11.97;83.93;96312.94;5103230;27;20057;-61
2022/06/11 00:51:17;;;;;;;1.73;1.63;;;;;;;12.03;83.56;96311.59;5103400;27;20043;-60
2022/06/11 00:53:47;;;;;;;2.13;1.80;;;;;;;12.01;85.11;96313.53;5096323;27;20032;-60
2022/06/11 00:56:21;;;;;;;2.22;1.80;;;;;;;11.98;84.54;96304.03;5103596;27;20047;-60
2022/06/11 00:58:50;;;;;;;3.65;2.03;;;;;;;11.93;86.50;96316.81;5099001;27;20494;-60
2022/06/11 01:01:18;;;;;;;3.20;1.92;;;;;;;11.91;85.45;96313.47;5104558;27;20074;-60
2022/06/11 01:03:46;;;;;;;2.65;1.90;;;;;;;11.93;84.85;96314.19;5106475;28;20024;-60
2022/06/11 01:06:14;;;;;;;2.53;1.83;;;;;;;11.93;84.29;96311.53;5103752;27;20428;-60
2022/06/11 01:08:42;;;;;;;2.45;2.00;;;;;;;11.92;84.75;96312.50;5100920;27;20171;-60
2022/06/11 01:11:48;;;;;;;2.00;1.90;;;;;;;11.89;84.83;96308.31;5108367;27;20076;-60
2022/06/11 01:14:33;;;;;;;2.47;2.10;;;;;;;11.76;86.47;96313.03;5099800;27;20046;-60
2022/06/11 01:17:30;;;;;;;1.92;1.77;;;;;;;11.72;85.80;96304.53;5098234;27;20027;-60
2022/06/11 01:20:46;;;;;;;5.25;2.00;;;;;;;11.71;86.79;96309.94;5095486;28;20510;-60
2022/06/11 01:23:26;;;;;;;3.50;2.35;;;;;;;11.77;85.74;96305.94;5097668;27;20065;-60
2022/06/11 01:26:18;;;;;;;2.72;1.92;;;;;;;11.81;85.42;96300.25;5097760;27;20062;-60
2022/06/11 01:29:05;;;;;;;5.55;2.40;;;;;;;11.76;85.22;96305.13;5104981;27;20027;-60
2022/06/11 01:31:37;;;;;;;3.30;1.70;;;;;;;11.77;85.21;96303.28;5105503;27;20051;-60
2022/06/11 01:34:04;;;;;;;3.40;1.80;;;;;;;11.74;85.47;96307.06;5099190;27;20065;-60
2022/06/11 01:36:35;;;;;;;4.35;1.67;;;;;;;11.70;85.42;96309.13;5105163;27;20024;-60
2022/06/11 01:39:22;;;;;;;2.97;2.22;;;;;;;11.68;86.50;96304.94;5081155;28;20435;-59
2022/06/11 01:42:00;;;;;;;2.00;1.83;;;;;;;11.67;85.64;96312.03;5102132;27;20035;-60
2022/06/11 01:44:30;;;;;;;2.42;2.22;;;;;;;11.65;86.07;96303.41;5100266;28;20487;-60
2022/06/11 01:46:57;;;;;;;1.90;1.80;;;;;;;11.61;86.73;96304.66;5103173;28;20706;-59
2022/06/11 01:49:23;;;;;;;3.80;2.00;;;;;;;11.54;87.21;96309.63;5103776;28;20375;-60
2022/06/11 01:52:10;;;;;;;4.50;1.85;;;;;;;11.51;86.87;96316.94;5098197;28;20038;-61
2022/06/11 01:54:38;;;;;;;3.22;2.00;;;;;;;11.50;90.02;96315.28;5100081;28;20042;-60
2022/06/11 01:57:25;;;;;;;2.00;1.80;;;;;;;11.50;88.95;96312.66;5105398;28;20414;-60
2022/06/11 02:00:09;;;;;;;2.38;2.08;;;;;;;11.43;89.08;96317.59;5100158;28;20506;-61
2022/06/11 02:02:40;;;;;;;4.00;1.90;;;;;;;11.37;88.15;96313.69;5098996;28;20032;-61
2022/06/11 02:05:08;;;;;;;2.10;1.90;;;;;;;11.33;88.10;96320.19;5099535;28;20021;-61
2022/06/11 02:07:45;;;;;;;1.90;1.80;;;;;;;11.32;88.01;96319.38;5089583;28;20371;-60
2022/06/11 02:10:23;;;;;;;5.22;2.08;;;;;;;11.31;88.25;96322.97;5095288;28;20036;-60
2022/06/11 02:13:00;;;;;;;2.05;1.80;;;;;;;11.28;89.37;96320.63;5095644;28;20023;-60
2022/06/11 02:15:29;;;;;;;1.77;1.67;;;;;;;11.22;88.79;96315.84;5097951;28;20028;-60
2022/06/11 02:18:00;;;;;;;1.73;1.55;;;;;;;11.22;89.30;96323.75;5098562;28;20027;-60
2022/06/11 02:20:36;;;;;;;4.53;2.08;;;;;;;11.17;90.03;96324.16;5106800;27;20024;-60
2022/06/11 02:23:46;;;;;;;2.78;2.05;;;;;;;11.16;89.68;96311.94;5104541;27;20035;-60
2022/06/11 02:26:18;;;;;;;6.03;2.10;;;;;;;11.10;90.10;96317.72;5101486;27;20406;-60
2022/06/11 02:28:47;;;;;;;3.10;1.90;;;;;;;11.09;89.94;96323.13;5107560;27;20609;-60
2022/06/11 02:31:15;;;;;;;3.88;2.00;;;;;;;10.98;91.17;96316.13;5104274;27;20070;-60
2022/06/11 02:33:42;;;;;;;2.17;1.95;;;;;;;10.97;90.06;96323.19;5106480;27;20114;-60
2022/06/11 02:36:10;;;;;;;4.70;1.70;;;;;;;11.02;90.06;96326.25;5111656;27;20026;-60
2022/06/11 02:38:36;;;;;;;1.70;1.60;;;;;;;11.06;89.41;96331.31;5105575;27;20031;-60
2022/06/11 02:41:15;;;;;;;3.05;1.98;;;;;;;11.04;89.57;96329.59;5100227;27;20024;-60
2022/06/11 02:43:41;;;;;;;1.90;1.80;;;;;;;11.07;89.55;96332.97;5108821;27;20038;-60
2022/06/11 02:48:53;;;;;;;3.58;1.95;;;;;;;10.95;89.89;96334.84;5111622;27;20623;-60
2022/06/11 02:51:20;;;;;;;2.33;2.13;;;;;;;10.90;92.23;96343.13;5100481;27;20036;-60
2022/06/11 02:53:45;;;;;;;3.58;1.90;;;;;;;10.85;91.96;96346.13;5096201;27;20495;-60
2022/06/11 02:56:13;;;;;;;2.45;1.92;;;;;;;10.92;90.88;96343.81;5109671;27;20100;-60
2022/06/11 02:58:39;;;;;;;3.75;2.00;;;;;;;10.92;91.60;96342.97;5098357;27;20035;-60
2022/06/11 03:01:04;;;;;;;3.08;2.00;;;;;;;10.89;90.94;96342.28;5103571;27;20035;-61
2022/06/11 03:03:29;;;;;;;2.53;2.10;;;;;;;10.89;91.42;96341.44;5095528;27;20028;-60
2022/06/11 03:05:55;;;;;;;2.92;2.00;;;;;;;10.86;91.70;96346.97;5113146;27;20483;-61
2022/06/11 03:08:21;;;;;;;1.80;1.70;;;;;;;10.81;91.18;96346.50;5099281;27;20061;-60
2022/06/11 03:10:54;;;;;;;2.40;2.05;;;;;;;10.78;92.20;96344.97;5102957;27;20076;-60
2022/06/11 03:13:22;;;;;;;4.60;1.90;;;;;;;10.80;91.75;96336.94;5095295;27;20019;-60
2022/06/11 03:15:48;;;;;;;2.85;1.80;;;;;;;10.75;93.09;96340.78;5104175;27;20549;-60
2022/06/11 03:18:14;;;;;;;2.22;2.10;;;;;;;10.68;93.37;96334.38;5106883;27;20024;-60
2022/06/11 03:20:40;;;;;;;11.82;2.50;;;;;;;10.64;93.32;96342.63;5102586;27;20069;-61
2022/06/11 03:23:06;;;;;;;2.60;2.40;;;;;;;10.63;93.93;96338.34;5096672;27;20497;-61
2022/06/11 03:25:32;;;;;;;3.00;2.10;;;;;;;10.64;92.95;96340.84;5095904;27;20024;-60
2022/06/11 03:27:58;;;;;;;2.47;2.08;;;;;;;10.69;92.84;96343.09;5106969;27;20031;-60
2022/06/11 03:30:23;;;;;;;5.10;2.50;;;;;;;10.72;92.90;96350.72;5101143;27;20121;-60
2022/06/11 03:32:49;;;;;;;4.05;2.20;;;;;;;10.70;92.29;96348.25;5100424;27;20050;-60
2022/06/11 03:35:15;;;;;;;3.95;2.10;;;;;;;10.63;93.13;96352.34;5097646;27;20043;-60
2022/06/11 03:37:41;;;;;;;3.33;2.42;;;;;;;10.60;93.33;96352.56;5100559;27;20028;-60
2022/06/11 03:40:08;;;;;;;2.20;2.00;;;;;;;10.62;92.83;96345.41;5103326;27;20118;-60
2022/06/11 03:42:33;;;;;;;5.25;2.13;;;;;;;10.62;93.01;96348.03;5104985;27;20024;-61
2022/06/11 03:44:59;;;;;;;3.08;2.03;;;;;;;10.59;93.13;96350.91;5099302;27;20073;-60
2022/06/11 03:47:24;;;;;;;2.42;2.25;;;;;;;10.55;94.20;96352.97;5099719;27;20026;-60
2022/06/11 03:49:50;;;;;;;2.53;2.30;;;;;;;10.49;95.12;96356.09;5108158;27;20486;-60
2022/06/11 03:52:15;;;;;;;2.90;2.70;;;;;;;10.50;94.39;96352.53;5105413;27;20432;-59
2022/06/11 03:54:41;;;;;;;2.75;2.25;;;;;;;10.49;94.80;96361.34;5106158;27;20024;-60
2022/06/11 03:57:07;;;;;;;3.03;2.35;;;;;;;10.52;93.98;96353.22;5102847;27;20127;-59
2022/06/11 03:59:32;;;;;;;3.00;2.15;;;;;;;10.52;94.28;96353.22;5082769;27;20085;-60
2022/06/11 04:01:58;;;;;;;3.65;2.20;;;;;;;10.52;95.36;96361.13;5112090;27;20023;-60
2022/06/11 04:04:24;;;;;;;4.10;2.45;;;;;;;10.51;94.74;96364.72;5074854;28;20028;-60
2022/06/11 04:06:52;;;;;;;2.97;2.13;;;;;;;10.46;95.86;96370.34;5105593;27;20028;-60
2022/06/11 04:09:35;;;;;;;2.30;2.20;;;;;;;10.48;95.05;96359.69;5105764;27;20483;-60
2022/06/11 04:12:03;;;;;;;2.10;2.00;;;;;;;10.49;96.67;96371.88;5100546;27;20031;-60
2022/06/11 04:14:28;;;;;;;3.13;2.67;;;;;;;10.51;96.38;96377.88;5101481;27;20024;-60
2022/06/11 04:16:58;;;;;;;4.13;2.55;;;;;;;10.49;95.91;96378.97;5100330;27;20401;-60
2022/06/11 04:19:33;;;;;;;5.63;2.33;;;;;;;10.55;94.83;96366.13;5088067;28;20024;-60
2022/06/11 04:21:59;;;;;;;;;;;;;;;10.60;94.80;96371.00;5104884;27;20028;-60
2022/06/11 04:24:26;;;;;;;2.63;2.42;;;;;;;10.62;94.35;96371.75;5097807;27;19919;-60
2022/06/11 04:26:54;;;;;;;2.30;2.10;;;;;;;10.60;95.39;96374.50;5109092;27;20080;-60
2022/06/11 04:29:23;;;;;;;4.30;2.30;;;;;;;10.58;95.98;96376.41;5105903;27;20013;-60
2022/06/11 04:31:50;;;;;;;5.60;2.67;;;;;;;10.55;96.90;96366.13;5099273;27;20034;-60
2022/06/11 04:34:17;;;;;;;3.72;2.72;;;;;;;10.58;95.71;96367.66;5098685;27;20020;-60
2022/06/11 04:36:45;;;;;;;2.88;2.67;;;;;;;10.64;95.36;96374.22;5110286;27;20028;-60
2022/06/11 04:39:12;;;;;;;7.57;2.40;;;;;;;10.68;95.23;96378.28;5101854;27;20080;-60
2022/06/11 04:41:38;;;;;;;3.42;2.50;;;;;;;10.65;96.17;96375.91;5099965;27;20514;-60
2022/06/11 04:44:04;;;;;;;2.50;2.30;;;;;;;10.67;95.33;96384.50;5103764;27;20055;-60
2022/06/11 04:46:29;;;;;;;4.57;2.50;;;;;;;10.69;94.62;96382.59;5098570;27;20111;-60
2022/06/11 04:48:55;;;;;;;3.65;2.83;;;;;;;10.77;94.53;96387.22;5103948;27;20444;-60
2022/06/11 04:51:20;;;;;;;3.78;3.47;;;;;;;10.79;95.19;96380.88;5097635;27;20035;-60
2022/06/11 04:53:47;;;;;;;5.45;3.28;;;;;;;10.79;95.50;96383.53;5109972;27;20087;-60
2022/06/11 04:56:23;;;;;;;4.65;2.70;;;;;;;10.82;94.68;96380.63;5105247;27;20044;-60
2022/06/11 04:58:50;;;;;;;4.70;3.08;;;;;;;10.80;94.80;96384.34;5096895;27;20027;-60
2022/06/11 05:01:16;;;;;;;2.33;2.22;;;;;;;10.80;94.48;96387.81;5096993;27;20491;-60
2022/06/11 05:03:42;;;;;;;2.65;2.45;;;;;;;10.84;94.98;96391.88;5096319;27;20043;-61
2022/06/11 05:06:07;;;;;;;2.80;2.60;;;;;;;10.95;95.23;96388.34;5101584;27;20024;-61
2022/06/11 05:08:33;;;;;;;4.30;2.55;;;;;;;11.09;94.66;96384.56;5100140;27;20031;-61
2022/06/11 05:10:59;;;;;;;2.70;2.20;;;;;;;11.27;94.54;96387.47;5091730;27;20035;-60
2022/06/11 05:13:24;;;;;;;3.47;2.40;;;;;;;11.41;94.36;96383.66;5099058;27;20391;-60
2022/06/11 05:15:54;;;;;;;3.35;2.70;;;;;;;11.57;94.23;96387.63;5097539;27;20034;-60
2022/06/11 05:18:21;;;;;;;2.67;2.40;;;;;;;11.72;93.80;96386.31;5102452;27;20027;-61
2022/06/11 05:20:46;;;;;;;6.43;2.70;;;;;;;11.88;93.71;96390.28;5095130;28;20516;-61
2022/06/11 05:23:13;;;;;;;6.63;2.45;;;;;;;12.03;92.66;96383.66;5099610;27;20069;-61
2022/06/11 05:25:40;;;;;;;2.22;2.10;;;;;;;12.16;91.98;96390.53;5099955;27;20047;-61
2022/06/11 05:28:08;;;;;;;3.15;2.45;;;;;;;12.27;91.55;96379.88;5103623;27;20035;-60
2022/06/11 05:30:34;;;;;;;2.97;2.28;;;;;;;12.37;89.88;96385.16;5096309;28;20035;-61
2022/06/11 05:33:01;;;;;;;3.95;2.40;;;;;;;12.48;89.77;96389.47;5099369;28;20024;-61
2022/06/11 05:35:29;;;;;;;3.53;2.03;;;;;;;12.65;88.73;96381.84;5100937;27;20095;-61
2022/06/11 05:37:57;;;;;;;2.10;2.00;;;;;;;12.76;86.66;96387.03;5097821;27;20047;-62
2022/06/11 05:40:26;;;;;;;1.88;1.77;;;;;;;12.92;85.41;96388.25;5098280;28;20043;-61
2022/06/11 05:42:52;;;;;;;4.25;1.52;;;;;;;13.01;85.06;96382.97;5100970;27;20031;-61
2022/06/11 05:45:22;;;;;;;4.15;2.05;;;;;;;13.10;84.26;96386.56;5100147;28;20102;-61
2022/06/11 05:47:50;;;;;;;2.20;2.00;;;;;;;13.27;83.57;96389.47;5096220;28;20034;-60
2022/06/11 05:50:19;;;;;;;1.83;1.75;;;;;;;13.36;83.92;96385.97;5097143;28;20024;-60
2022/06/11 05:52:45;;;;;;;4.85;1.67;;;;;;;13.43;84.08;96388.91;5095026;28;20039;-60
2022/06/11 05:55:16;;;;;;;2.47;1.42;;;;;;;13.52;82.29;96387.22;5107947;27;20032;-61
2022/06/11 05:57:45;;;;;;;2.97;1.60;;;;;;;13.69;81.19;96391.78;5104957;27;20063;-60
2022/06/11 06:00:15;;;;;;;3.05;2.03;;;;;;;13.86;78.68;96398.13;5106006;27;20080;-61
2022/06/11 06:02:41;;;;;;;1.83;1.67;;;;;;;14.01;78.11;96402.94;5103146;27;20059;-61
2022/06/11 06:05:08;;;;;;;3.50;1.60;;;;;;;14.14;77.44;96394.66;5097290;27;20062;-66
2022/06/11 06:07:33;;;;;;;2.45;1.63;;;;;;;14.33;77.80;96404.31;5101601;27;20123;-67
2022/06/11 06:09:59;;;;;;;1.77;1.63;;;;;;;14.48;76.91;96399.38;5098276;27;20099;-66
2022/06/11 06:12:24;;;;;;;2.63;1.85;;;;;;;14.63;76.47;96399.69;5103366;27;20102;-66
2022/06/11 06:14:50;;;;;;;1.65;1.50;;;;;;;14.82;75.85;96406.69;5100114;27;20028;-66
2022/06/11 06:17:16;;;;;;;4.60;2.00;;;;;;;14.96;75.19;96405.31;5102915;27;20062;-66
2022/06/11 06:19:41;;;;;;;2.47;1.58;;;;;;;15.17;74.71;96398.88;5108699;27;20035;-67
2022/06/11 06:22:06;;;;;;;1.50;1.40;;;;;;;15.36;73.41;96407.63;5099748;27;20028;-66
2022/06/11 06:24:33;;;;;;;2.22;1.30;;;;;;;15.54;73.10;96407.59;5104082;27;20031;-66
2022/06/11 06:26:58;;;;;;;1.92;1.80;;;;;;;15.82;71.83;96407.44;5099985;27;20024;-66
2022/06/11 06:29:24;;;;;;;3.22;1.55;;;;;;;16.09;70.88;96406.44;5102462;27;20077;-66
2022/06/11 06:31:49;;;;;;;2.53;1.52;;;;;;;16.41;70.59;96407.56;5104492;27;20024;-66
2022/06/11 06:34:15;;;;;;;3.92;1.40;;;;;;;16.74;68.62;96409.50;5101866;27;20486;-66
2022/06/11 06:36:40;;;;;;;2.53;1.50;;;;;;;16.97;66.89;96408.84;5108430;27;20024;-66
2022/06/11 06:39:05;;;;;;;2.05;1.65;;;;;;;17.30;66.87;96408.88;5099209;27;20031;-66
2022/06/11 06:41:31;;;;;;;2.58;1.60;;;;;;;17.84;64.37;96399.50;5106862;27;20029;-67
2022/06/11 06:43:56;;;;;;;2.83;1.30;;;;;;;18.30;60.61;96399.72;5104004;27;20055;-66
2022/06/11 06:46:22;;;;;;;2.15;1.60;;;;;;;18.70;58.80;96401.53;5105086;27;20059;-66
2022/06/11 06:48:47;;;;;;;1.60;1.50;;;;;;;19.03;56.64;96398.66;5098523;27;20479;-66
2022/06/11 06:51:13;;;;;;;1.33;1.23;;;;;;;19.40;54.79;96396.19;5102680;27;20539;-66
2022/06/11 06:53:40;;;;;;;1.50;1.40;;;;;;;19.76;54.50;96401.69;5107738;27;20028;-66
2022/06/11 06:56:07;;;;;;;1.90;1.23;;;;;;;20.05;53.01;96391.22;5098338;27;20058;-66
2022/06/11 06:58:33;;;;;;;1.50;1.40;;;;;;;20.26;53.05;96395.84;5105139;27;20383;-66
2022/06/11 07:00:59;;;;;;;2.47;1.20;;;;;;;20.37;51.94;96399.03;5083698;28;20589;-66
2022/06/11 07:03:24;;;;;;;1.42;1.08;;;;;;;20.48;51.69;96398.59;5099729;27;20056;-66
2022/06/11 07:05:50;;;;;;;4.25;1.10;;;;;;;20.75;50.31;96394.34;5104862;27;20015;-66
2022/06/11 07:08:17;;;;;;;3.25;1.27;;;;;;;20.95;50.31;96395.63;5101503;27;20066;-66
2022/06/11 07:10:51;;;;;;;1.40;1.30;;;;;;;21.44;47.29;96397.50;5100326;27;20476;-66
2022/06/11 07:13:17;;;;;;;1.70;1.60;;;;;;;21.76;48.37;96399.84;5096804;27;20028;-66
2022/06/11 07:15:45;;;;;;;1.42;1.20;;;;;;;21.90;47.95;96400.75;5103723;27;20024;-66
2022/06/11 07:18:16;;;;;;;1.30;1.20;;;;;;;21.75;46.29;96396.31;5101330;27;20574;-66
2022/06/11 07:20:42;;;;;;;2.17;1.50;;;;;;;22.39;46.33;96393.59;5102629;27;20060;-66
2022/06/11 07:23:35;;;;;;;2.22;1.13;;;;;;;22.52;44.57;96392.00;5100466;27;20031;-66
2022/06/11 07:26:03;;;;;;;2.22;1.45;;;;;;;22.43;45.30;96392.16;5100556;27;20034;-66
2022/06/11 07:28:35;;;;;;;1.40;1.30;;;;;;;22.66;43.44;96396.41;5096341;27;20438;-66
2022/06/11 07:31:00;;;;;;;1.48;1.20;;;;;;;22.95;44.39;96398.97;5100294;27;20028;-66
2022/06/11 07:33:26;;;;;;;3.42;1.20;;;;;;;22.73;44.32;96391.88;5095270;27;20036;-66
2022/06/11 07:35:54;;;;;;;1.85;1.60;;;;;;;22.83;43.83;96388.81;5109211;27;20055;-66
2022/06/11 07:38:21;;;;;;;1.50;1.40;;;;;;;23.05;44.31;96383.28;5103587;27;20053;-66
2022/06/11 07:40:47;;;;;;;1.40;1.30;;;;;;;23.42;43.48;96388.28;5103224;27;20039;-66
2022/06/11 07:43:12;;;;;;;2.53;1.20;;;;;;;23.71;41.69;96388.91;5102658;27;20550;-66
2022/06/11 07:45:40;;;;;;;1.25;1.15;;;;;;;24.00;40.99;96390.31;5101139;27;20028;-64
2022/06/11 07:48:07;;;;;;;1.70;1.38;;;;;;;23.95;41.27;96387.41;5099331;27;20028;-64
2022/06/11 07:50:39;;;;;;;4.05;1.17;;;;;;;23.81;42.45;96383.13;5099253;27;20085;-64
2022/06/11 07:53:06;;;;;;;2.08;1.30;;;;;;;24.16;40.97;96385.53;5096498;27;20482;-65
2022/06/11 07:55:32;;;;;;;2.22;1.50;;;;;;;24.61;40.42;96379.38;5104246;27;20406;-65
2022/06/11 07:57:58;;;;;;;1.20;1.10;;;;;;;24.04;42.01;96377.28;5096954;27;20028;-64
2022/06/11 08:00:27;;;;;;;1.48;1.30;;;;;;;24.67;39.57;96377.69;5094931;27;20023;-65
2022/06/11 08:02:52;;;;;;;4.35;1.40;;;;;;;24.78;40.64;96371.63;5098381;27;20020;-64
2022/06/11 08:05:18;;;;;;;2.90;1.20;;;;;;;25.14;39.43;96372.03;5095117;28;20031;-65
2022/06/11 08:07:44;;;;;;;1.90;1.10;;;;;;;25.07;39.47;96372.06;5106959;27;20032;-65
2022/06/11 08:10:11;;;;;;;1.17;1.10;;;;;;;24.96;38.79;96370.91;5094093;28;20115;-65
2022/06/11 08:12:36;;;;;;;3.47;1.00;;;;;;;24.98;39.14;96370.69;5101648;27;20020;-65
2022/06/11 08:15:03;;;;;;;2.65;1.50;;;;;;;25.74;38.59;96379.66;5097603;27;20449;-64
2022/06/11 08:17:30;;;;;;;1.77;1.17;;;;;;;25.45;37.66;96373.88;5097250;27;20411;-65
2022/06/11 08:19:56;;;;;;;1.30;1.20;;;;;;;25.24;39.62;96363.47;5097238;27;20075;-65
2022/06/11 08:22:22;;;;;;;1.55;1.20;;;;;;;25.60;37.57;96361.97;5099662;27;20145;-65
2022/06/11 08:24:48;;;;;;;2.03;1.23;;;;;;;26.09;37.55;96362.13;5101852;27;20418;-65
2022/06/11 08:27:14;;;;;;;3.08;1.60;;;;;;;25.68;38.68;96367.06;5098818;27;20020;-66
2022/06/11 08:29:39;;;;;;;1.63;1.33;;;;;;;25.94;37.92;96370.53;5102864;27;20114;-64
2022/06/11 08:32:06;;;;;;;1.45;1.20;;;;;;;25.80;37.24;96369.06;5096276;27;20035;-65
2022/06/11 08:34:36;;;;;;;2.08;1.60;;;;;;;25.95;36.92;96363.28;5105591;27;20422;-65
2022/06/11 08:37:01;;;;;;;1.25;1.15;;;;;;;26.01;38.22;96360.53;5101321;27;20120;-65
2022/06/11 08:39:26;;;;;;;4.68;1.80;;;;;;;26.02;37.76;96353.25;5101945;27;20116;-65
2022/06/11 08:41:52;;;;;;;1.50;1.40;;;;;;;25.95;39.25;96350.63;5104668;27;20027;-65
2022/06/11 08:44:17;;;;;;;3.03;1.50;;;;;;;26.15;36.96;96355.81;5104848;27;20035;-66
2022/06/11 08:46:46;;;;;;;4.50;1.30;;;;;;;27.11;35.73;96351.69;5095289;27;20046;-65
2022/06/11 08:49:27;;;;;;;1.25;1.15;;;;;;;26.30;36.73;96355.44;5098988;27;20028;-65
2022/06/11 08:52:02;;;;;;;5.13;1.40;;;;;;;27.22;35.73;96355.47;5099877;27;20029;-65
2022/06/11 08:54:38;;;;;;;2.20;1.10;;;;;;;27.58;35.15;96355.56;5100519;27;20023;-65
2022/06/11 08:57:16;;;;;;;2.85;1.42;;;;;;;27.11;35.00;96354.41;5100372;27;20465;-65
2022/06/11 09:00:03;;;;;;;1.50;1.33;;;;;;;27.31;35.28;96345.97;5099847;27;20024;-64
2022/06/11 09:02:50;;;;;;;1.40;1.30;;;;;;;26.71;35.74;96342.25;5098283;27;20032;-65
2022/06/11 09:05:40;;;;;;;1.23;1.15;;;;;;;26.64;38.01;96336.13;5096601;28;20024;-72
2022/06/11 09:08:27;;;;;;;4.72;1.30;;;;;;;26.93;37.05;96339.06;5097015;27;20483;-72
2022/06/11 09:11:41;;;;;;;1.55;1.30;;;;;;;27.65;35.31;96339.22;5107768;27;20393;-72
2022/06/11 09:14:48;;;;;;;2.97;1.55;;;;;;;27.38;34.26;96339.63;5065309;27;20621;-72
2022/06/11 09:17:32;;;;;;;2.03;1.58;;;;;;;27.82;34.18;96336.59;5099694;27;20040;-72
2022/06/11 09:20:04;;;;;;;1.38;1.27;;;;;;;27.86;34.50;96338.63;5096181;27;20035;-72
2022/06/11 09:23:05;;;;;;;1.65;1.23;;;;;;;28.08;34.29;96342.56;5093868;27;20055;-71
2022/06/11 09:25:49;;;;;;;1.63;1.00;;;;;;;28.04;32.83;96334.09;5099162;27;20081;-72
2022/06/11 09:28:26;;;;;;;1.73;1.40;;;;;;;27.42;35.11;96344.34;5095496;27;20034;-71
2022/06/11 09:31:11;;;;;;;1.38;1.10;;;;;;;27.86;34.26;96344.03;5100464;27;20058;-71
2022/06/11 09:33:43;;;;;;;1.10;1.00;;;;;;;28.13;33.58;96339.97;5102186;28;20133;-71
2022/06/11 09:36:16;;;;;;;1.02;0.90;;;;;;;28.20;31.82;96340.72;5104650;28;20083;-72
2022/06/11 09:39:03;;;;;;;2.95;1.23;;;;;;;28.22;33.64;96338.59;5100076;27;20509;-71
2022/06/11 09:41:47;;;;;;;1.33;1.15;;;;;;;27.97;33.35;96336.13;5099602;27;20040;-71
2022/06/11 09:44:28;;;;;;;1.52;1.23;;;;;;;27.81;34.67;96341.19;5099247;28;20024;-71
2022/06/11 09:47:10;;;;;;;3.65;1.20;;;;;;;27.64;35.00;96338.38;5100121;28;20382;-71
2022/06/11 09:49:49;;;;;;;2.40;1.42;;;;;;;27.49;36.43;96348.78;5099769;28;20558;-71
2022/06/11 09:52:21;;;;;;;1.13;0.90;;;;;;;28.57;34.11;96334.94;5103894;28;20077;-67
2022/06/11 09:54:50;;;;;;;2.58;1.30;;;;;;;28.19;33.33;96333.66;5100654;28;20111;-67
2022/06/11 09:57:24;;;;;;;1.50;1.20;;;;;;;28.46;32.88;96333.09;5100323;28;20044;-67
2022/06/11 09:59:54;;;;;;;1.23;1.13;;;;;;;28.77;32.45;96332.88;5096621;28;20088;-67
2022/06/11 10:05:05;;;;;;;3.22;1.42;;;;;;;28.92;32.57;96330.44;5098292;28;20030;-67
2022/06/11 10:07:40;;;;;;;1.63;1.30;;;;;;;28.26;33.28;96326.22;5103263;28;20039;-67
2022/06/11 10:10:34;;;;;;;1.25;1.13;;;;;;;28.45;32.65;96331.44;5090230;28;20398;-67
2022/06/11 10:13:14;;;;;;;5.15;1.25;;;;;;;29.06;32.19;96330.13;5094100;28;20036;-67
2022/06/11 10:15:42;;;;;;;1.60;1.50;;;;;;;28.51;33.18;96319.66;5094705;28;20035;-67
2022/06/11 10:18:17;;;;;;;1.85;1.40;;;;;;;29.09;32.72;96325.06;5101792;28;20406;-67
2022/06/11 10:21:10;;;;;;;1.58;0.98;;;;;;;27.93;32.16;96329.53;5094872;28;20032;-67
2022/06/11 10:23:46;;;;;;;2.33;1.70;;;;;;;28.02;34.46;96326.25;5096367;28;20132;-67
2022/06/11 10:26:26;;;;;;;4.28;1.10;;;;;;;28.38;31.87;96323.47;5099023;28;20023;-66
2022/06/11 10:28:55;;;;;;;1.40;1.17;;;;;;;28.95;32.03;96318.31;5100382;28;20029;-66
2022/06/11 10:31:25;;;;;;;1.35;1.20;;;;;;;29.07;32.29;96316.34;5096265;28;20521;-66
2022/06/11 10:34:14;;;;;;;2.78;1.27;;;;;;;29.32;31.03;96320.56;5103308;28;20049;-66
2022/06/11 10:36:52;;;;;;;1.38;1.00;;;;;;;29.29;30.05;96318.31;5095342;28;20037;-66
2022/06/11 10:39:25;;;;;;;4.05;1.13;;;;;;;29.59;29.68;96314.47;5096460;27;20022;-66
2022/06/11 10:42:13;;;;;;;2.65;1.30;;;;;;;29.89;29.87;96318.69;5106105;27;20027;-66
2022/06/11 10:44:47;;;;;;;1.60;1.30;;;;;;;30.12;29.51;96311.41;5102501;27;20028;-66
2022/06/11 10:47:28;;;;;;;2.65;1.00;;;;;;;29.33;29.90;96305.09;5095180;27;20114;-66
2022/06/11 10:50:07;;;;;;;1.80;1.00;;;;;;;29.95;27.92;96306.00;5107270;27;20059;-66
2022/06/11 10:52:44;;;;;;;1.40;1.02;;;;;;;29.81;29.52;96311.78;5108528;27;20078;-65
2022/06/11 10:55:15;;;;;;;1.00;0.90;;;;;;;30.53;26.96;96301.03;5102575;27;20506;-66
2022/06/11 10:57:41;;;;;;;3.05;1.00;;;;;;;31.18;25.96;96308.47;5101309;27;20032;-66
2022/06/11 11:00:13;;;;;;;1.60;1.38;;;;;;;31.15;26.39;96304.34;5103744;27;20038;-66
2022/06/11 11:02:41;;;;;;;2.25;2.15;;;;;;;30.41;27.69;96306.59;5101546;27;20051;-66
2022/06/11 11:05:12;;;;;;;2.92;1.30;;;;;;;30.80;28.90;96300.22;5101653;27;20038;-66
2022/06/11 11:07:45;;;;;;;1.20;1.00;;;;;;;31.65;26.13;96300.66;5107168;27;20059;-66
2022/06/11 11:10:19;;;;;;;1.30;0.88;;;;;;;31.10;25.91;96301.59;5104360;27;20410;-66
2022/06/11 11:12:44;;;;;;;1.00;0.90;;;;;;;31.39;25.64;96303.19;5105090;27;20031;-66
2022/06/11 11:15:12;;;;;;;1.40;0.82;;;;;;;30.99;25.25;96297.13;5098688;27;20032;-66
2022/06/11 11:17:46;;;;;;;1.38;1.10;;;;;;;30.85;25.84;96292.16;5099251;27;20043;-66
2022/06/11 11:20:29;;;;;;;3.93;1.03;;;;;;;30.92;26.53;96293.81;5097272;27;20185;-66
2022/06/11 11:23:00;;;;;;;1.02;1.00;;;;;;;30.90;25.72;96290.56;5100350;27;20027;-66
2022/06/11 11:25:37;;;;;;;1.58;0.98;;;;;;;30.44;26.91;96287.06;5101763;27;20024;-66
2022/06/11 11:28:04;;;;;;;1.95;1.02;;;;;;;30.38;27.22;96279.94;5102170;27;20106;-66
2022/06/11 11:30:38;;;;;;;0.82;0.82;;;;;;;30.57;27.06;96285.84;5104673;27;20111;-66
2022/06/11 11:33:24;;;;;;;0.80;0.80;;;;;;;31.57;26.10;96278.28;5103331;27;20051;-66
2022/06/11 11:36:19;;;;;;;3.65;0.90;;;;;;;31.52;24.44;96286.44;5103885;27;20114;-66
2022/06/11 11:38:45;;;;;;;1.15;1.05;;;;;;;31.68;25.75;96283.81;5103354;27;20410;-66
2022/06/11 11:41:31;;;;;;;4.20;0.90;;;;;;;31.49;25.48;96276.06;5100319;27;20051;-66
2022/06/11 11:43:58;;;;;;;1.30;1.00;;;;;;;31.36;25.39;96277.34;5102395;27;20081;-66
2022/06/11 11:46:25;;;;;;;2.78;1.10;;;;;;;31.46;25.26;96268.44;5098342;27;20448;-66
2022/06/11 11:48:52;;;;;;;0.98;0.80;;;;;;;31.36;24.54;96271.91;5101192;27;20051;-65
2022/06/11 11:51:27;;;;;;;1.27;1.08;;;;;;;31.11;25.70;96277.94;5105432;27;20035;-66
2022/06/11 11:53:59;;;;;;;1.20;1.10;;;;;;;31.21;25.94;96269.06;5107890;27;20053;-65
2022/06/11 11:56:48;;;;;;;1.00;0.80;;;;;;;31.37;26.94;96267.28;5098557;28;20036;-66
2022/06/11 11:59:49;;;;;;;1.23;0.95;;;;;;;30.95;25.59;96260.69;5103812;28;20031;-66